sensor_id;sensor_type;location;lat;lon;timestamp;temperature;humidity
6824;DHT22;58633;49.470;11.004;2023-05-07T00:02:52;17.30;58.10
6824;DHT22;58633;49.470;11.004;2023-05-07T00:05:18;17.20;58.60
6824;DHT22;58633;49.470;11.004;2023-05-07T00:07:44;17.00;57.70
6824;DHT22;58633;49.470;11.004;2023-05-07T00:10:10;21.90;62.90
6824;DHT22;58633;49.470;11.004;2023-05-07T00:12:35;17.10;58.30
6824;DHT22;58633;49.470;11.004;2023-05-07T00:15:05;21.20;62.10
6824;DHT22;58633;49.470;11.004;2023-05-07T00:17:32;17.00;57.50
6824;DHT22;58633;49.470;11.004;2023-05-07T00:19:58;17.10;58.10
6824;DHT22;58633;49.470;11.004;2023-05-07T00:22:23;17.00;57.50
6824;DHT22;58633;49.470;11.004;2023-05-07T00:29:41;17.10;57.40
6824;DHT22;58633;49.470;11.004;2023-05-07T00:32:06;17.10;57.20
6824;DHT22;58633;49.470;11.004;2023-05-07T00:34:32;17.10;57.70
6824;DHT22;58633;49.470;11.004;2023-05-07T00:36:57;17.10;57.20
6824;DHT22;58633;49.470;11.004;2023-05-07T00:39:23;17.00;57.10
6824;DHT22;58633;49.470;11.004;2023-05-07T00:41:48;17.00;56.90
6824;DHT22;58633;49.470;11.004;2023-05-07T00:44:14;17.10;57.60
6824;DHT22;58633;49.470;11.004;2023-05-07T00:46:40;17.00;57.60
6824;DHT22;58633;49.470;11.004;2023-05-07T00:49:05;17.10;57.60
6824;DHT22;58633;49.470;11.004;2023-05-07T00:51:32;16.90;57.00
6824;DHT22;58633;49.470;11.004;2023-05-07T00:53:59;17.00;57.30
6824;DHT22;58633;49.470;11.004;2023-05-07T00:58:51;17.00;57.40
6824;DHT22;58633;49.470;11.004;2023-05-07T01:03:42;17.00;57.50
6824;DHT22;58633;49.470;11.004;2023-05-07T01:06:09;17.00;57.20
6824;DHT22;58633;49.470;11.004;2023-05-07T01:08:37;17.00;57.70
6824;DHT22;58633;49.470;11.004;2023-05-07T01:11:05;17.20;57.20
6824;DHT22;58633;49.470;11.004;2023-05-07T01:13:31;16.90;57.10
6824;DHT22;58633;49.470;11.004;2023-05-07T01:15:57;17.00;57.80
6824;DHT22;58633;49.470;11.004;2023-05-07T01:18:23;16.80;57.70
6824;DHT22;58633;49.470;11.004;2023-05-07T01:20:49;16.80;57.70
6824;DHT22;58633;49.470;11.004;2023-05-07T01:23:15;17.00;57.30
6824;DHT22;58633;49.470;11.004;2023-05-07T01:25:41;16.90;57.80
6824;DHT22;58633;49.470;11.004;2023-05-07T01:28:06;16.80;57.10
6824;DHT22;58633;49.470;11.004;2023-05-07T01:30:33;16.90;57.20
6824;DHT22;58633;49.470;11.004;2023-05-07T01:33:11;16.90;57.20
6824;DHT22;58633;49.470;11.004;2023-05-07T01:35:42;16.90;57.60
6824;DHT22;58633;49.470;11.004;2023-05-07T01:38:09;16.90;57.00
6824;DHT22;58633;49.470;11.004;2023-05-07T01:40:35;17.00;57.10
6824;DHT22;58633;49.470;11.004;2023-05-07T01:43:03;17.10;57.30
6824;DHT22;58633;49.470;11.004;2023-05-07T01:45:30;16.80;57.10
6824;DHT22;58633;49.470;11.004;2023-05-07T01:47:58;16.80;57.10
6824;DHT22;58633;49.470;11.004;2023-05-07T01:50:25;16.90;57.00
6824;DHT22;58633;49.470;11.004;2023-05-07T01:52:51;16.70;56.80
6824;DHT22;58633;49.470;11.004;2023-05-07T01:55:17;16.70;57.00
6824;DHT22;58633;49.470;11.004;2023-05-07T01:57:43;16.70;57.00
6824;DHT22;58633;49.470;11.004;2023-05-07T02:00:08;16.90;57.20
6824;DHT22;58633;49.470;11.004;2023-05-07T02:02:34;16.80;57.70
6824;DHT22;58633;49.470;11.004;2023-05-07T02:05:00;16.70;57.60
6824;DHT22;58633;49.470;11.004;2023-05-07T02:07:28;16.70;57.10
6824;DHT22;58633;49.470;11.004;2023-05-07T02:09:54;16.70;57.10
6824;DHT22;58633;49.470;11.004;2023-05-07T02:12:21;16.60;57.60
6824;DHT22;58633;49.470;11.004;2023-05-07T02:14:46;16.60;57.30
6824;DHT22;58633;49.470;11.004;2023-05-07T02:17:12;16.70;57.50
6824;DHT22;58633;49.470;11.004;2023-05-07T02:19:37;16.60;57.40
6824;DHT22;58633;49.470;11.004;2023-05-07T02:22:03;16.60;57.40
6824;DHT22;58633;49.470;11.004;2023-05-07T02:24:28;16.80;57.60
6824;DHT22;58633;49.470;11.004;2023-05-07T02:26:54;16.50;57.40
6824;DHT22;58633;49.470;11.004;2023-05-07T02:29:19;16.60;57.60
6824;DHT22;58633;49.470;11.004;2023-05-07T02:31:45;16.40;57.50
6824;DHT22;58633;49.470;11.004;2023-05-07T02:34:10;16.30;57.60
6824;DHT22;58633;49.470;11.004;2023-05-07T02:36:36;16.40;58.20
6824;DHT22;58633;49.470;11.004;2023-05-07T02:41:28;16.20;57.80
6824;DHT22;58633;49.470;11.004;2023-05-07T02:43:53;16.20;58.00
6824;DHT22;58633;49.470;11.004;2023-05-07T02:46:19;16.10;57.90
6824;DHT22;58633;49.470;11.004;2023-05-07T02:48:44;16.30;58.10
6824;DHT22;58633;49.470;11.004;2023-05-07T02:53:36;16.10;57.90
6824;DHT22;58633;49.470;11.004;2023-05-07T02:56:02;16.10;58.10
6824;DHT22;58633;49.470;11.004;2023-05-07T02:58:28;15.80;58.00
6824;DHT22;58633;49.470;11.004;2023-05-07T03:00:54;16.10;58.40
6824;DHT22;58633;49.470;11.004;2023-05-07T03:03:22;16.00;58.40
6824;DHT22;58633;49.470;11.004;2023-05-07T03:08:14;15.90;58.40
6824;DHT22;58633;49.470;11.004;2023-05-07T03:10:39;16.10;58.70
6824;DHT22;58633;49.470;11.004;2023-05-07T03:13:05;16.10;58.70
6824;DHT22;58633;49.470;11.004;2023-05-07T03:17:57;16.00;58.90
6824;DHT22;58633;49.470;11.004;2023-05-07T03:20:22;15.70;58.50
6824;DHT22;58633;49.470;11.004;2023-05-07T03:22:48;15.70;58.70
6824;DHT22;58633;49.470;11.004;2023-05-07T03:25:13;15.60;58.90
6824;DHT22;58633;49.470;11.004;2023-05-07T03:30:07;15.70;59.20
6824;DHT22;58633;49.470;11.004;2023-05-07T03:32:34;15.60;59.30
6824;DHT22;58633;49.470;11.004;2023-05-07T03:35:00;15.60;59.20
6824;DHT22;58633;49.470;11.004;2023-05-07T03:37:26;15.60;59.30
6824;DHT22;58633;49.470;11.004;2023-05-07T03:39:51;15.50;59.70
6824;DHT22;58633;49.470;11.004;2023-05-07T03:42:17;15.50;59.40
6824;DHT22;58633;49.470;11.004;2023-05-07T03:47:08;15.40;59.50
6824;DHT22;58633;49.470;11.004;2023-05-07T03:49:35;15.20;59.60
6824;DHT22;58633;49.470;11.004;2023-05-07T03:54:27;15.30;60.00
6824;DHT22;58633;49.470;11.004;2023-05-07T03:56:52;15.20;60.40
6824;DHT22;58633;49.470;11.004;2023-05-07T04:01:44;15.20;60.20
6824;DHT22;58633;49.470;11.004;2023-05-07T04:04:10;15.40;60.40
6824;DHT22;58633;49.470;11.004;2023-05-07T04:06:35;15.40;60.40
6824;DHT22;58633;49.470;11.004;2023-05-07T04:09:01;15.20;60.30
6824;DHT22;58633;49.470;11.004;2023-05-07T04:11:26;15.50;60.50
6824;DHT22;58633;49.470;11.004;2023-05-07T04:13:52;15.20;60.10
6824;DHT22;58633;49.470;11.004;2023-05-07T04:18:43;15.30;60.40
6824;DHT22;58633;49.470;11.004;2023-05-07T04:21:16;15.30;60.40
6824;DHT22;58633;49.470;11.004;2023-05-07T04:23:42;15.50;60.40
6824;DHT22;58633;49.470;11.004;2023-05-07T04:28:34;15.50;60.20
6824;DHT22;58633;49.470;11.004;2023-05-07T04:31:00;15.60;60.60
6824;DHT22;58633;49.470;11.004;2023-05-07T04:33:26;15.30;60.20
6824;DHT22;58633;49.470;11.004;2023-05-07T04:35:51;15.40;60.60
6824;DHT22;58633;49.470;11.004;2023-05-07T04:40:44;15.40;60.80
6824;DHT22;58633;49.470;11.004;2023-05-07T04:43:10;15.80;60.90
6824;DHT22;58633;49.470;11.004;2023-05-07T04:45:36;15.50;60.60
6824;DHT22;58633;49.470;11.004;2023-05-07T04:48:01;15.60;60.60
6824;DHT22;58633;49.470;11.004;2023-05-07T04:52:53;15.70;60.80
6824;DHT22;58633;49.470;11.004;2023-05-07T04:55:19;15.50;60.50
6824;DHT22;58633;49.470;11.004;2023-05-07T04:57:44;15.60;60.80
6824;DHT22;58633;49.470;11.004;2023-05-07T05:00:10;15.90;61.00
6824;DHT22;58633;49.470;11.004;2023-05-07T05:02:39;15.80;61.60
6824;DHT22;58633;49.470;11.004;2023-05-07T05:05:05;15.70;60.80
6824;DHT22;58633;49.470;11.004;2023-05-07T05:07:30;15.80;61.40
6824;DHT22;58633;49.470;11.004;2023-05-07T05:09:56;15.90;60.70
6824;DHT22;58633;49.470;11.004;2023-05-07T05:14:48;16.00;60.70
6824;DHT22;58633;49.470;11.004;2023-05-07T05:17:14;16.10;60.70
6824;DHT22;58633;49.470;11.004;2023-05-07T05:22:06;16.30;60.80
6824;DHT22;58633;49.470;11.004;2023-05-07T05:24:32;16.30;60.70
6824;DHT22;58633;49.470;11.004;2023-05-07T05:26:57;16.10;61.10
6824;DHT22;58633;49.470;11.004;2023-05-07T05:29:25;16.30;60.30
6824;DHT22;58633;49.470;11.004;2023-05-07T05:31:50;18.20;62.80
6824;DHT22;58633;49.470;11.004;2023-05-07T05:34:16;16.50;60.30
6824;DHT22;58633;49.470;11.004;2023-05-07T05:39:08;16.20;59.80
6824;DHT22;58633;49.470;11.004;2023-05-07T05:41:34;16.10;59.80
6824;DHT22;58633;49.470;11.004;2023-05-07T05:46:25;16.40;59.90
6824;DHT22;58633;49.470;11.004;2023-05-07T05:53:43;16.20;59.60
6824;DHT22;58633;49.470;11.004;2023-05-07T05:58:34;16.30;59.90
6824;DHT22;58633;49.470;11.004;2023-05-07T06:01:00;16.40;59.90
6824;DHT22;58633;49.470;11.004;2023-05-07T06:03:27;16.60;59.90
6824;DHT22;58633;49.470;11.004;2023-05-07T06:05:53;16.60;59.70
6824;DHT22;58633;49.470;11.004;2023-05-07T06:08:18;16.60;59.70
6824;DHT22;58633;49.470;11.004;2023-05-07T06:10:45;16.90;59.80
6824;DHT22;58633;49.470;11.004;2023-05-07T06:13:10;17.00;59.80
6824;DHT22;58633;49.470;11.004;2023-05-07T06:15:36;16.90;59.60
6824;DHT22;58633;49.470;11.004;2023-05-07T06:18:02;16.70;59.20
6824;DHT22;58633;49.470;11.004;2023-05-07T06:20:28;16.80;59.10
6824;DHT22;58633;49.470;11.004;2023-05-07T06:22:53;16.80;59.10
6824;DHT22;58633;49.470;11.004;2023-05-07T06:30:11;17.00;59.10
6824;DHT22;58633;49.470;11.004;2023-05-07T06:32:37;17.00;59.60
6824;DHT22;58633;49.470;11.004;2023-05-07T06:37:28;17.10;58.90
6824;DHT22;58633;49.470;11.004;2023-05-07T06:39:54;19.50;61.70
6824;DHT22;58633;49.470;11.004;2023-05-07T06:42:20;17.30;58.60
6824;DHT22;58633;49.470;11.004;2023-05-07T06:47:11;17.50;58.40
6824;DHT22;58633;49.470;11.004;2023-05-07T06:49:36;17.20;57.90
6824;DHT22;58633;49.470;11.004;2023-05-07T06:52:02;19.40;60.40
6824;DHT22;58633;49.470;11.004;2023-05-07T06:54:28;17.80;58.20
6824;DHT22;58633;49.470;11.004;2023-05-07T06:56:54;17.60;58.50
6824;DHT22;58633;49.470;11.004;2023-05-07T06:59:19;17.70;58.20
6824;DHT22;58633;49.470;11.004;2023-05-07T07:01:45;17.60;58.00
6824;DHT22;58633;49.470;11.004;2023-05-07T07:04:10;17.80;58.00
6824;DHT22;58633;49.470;11.004;2023-05-07T07:06:36;18.00;58.10
6824;DHT22;58633;49.470;11.004;2023-05-07T07:09:02;18.10;58.00
6824;DHT22;58633;49.470;11.004;2023-05-07T07:11:27;18.30;58.00
6824;DHT22;58633;49.470;11.004;2023-05-07T07:13:53;18.10;58.30
6824;DHT22;58633;49.470;11.004;2023-05-07T07:16:20;18.30;57.70
6824;DHT22;58633;49.470;11.004;2023-05-07T07:18:46;18.40;58.20
6824;DHT22;58633;49.470;11.004;2023-05-07T07:23:37;18.50;57.20
6824;DHT22;58633;49.470;11.004;2023-05-07T07:26:03;18.70;57.20
6824;DHT22;58633;49.470;11.004;2023-05-07T07:28:29;18.80;57.00
6824;DHT22;58633;49.470;11.004;2023-05-07T07:30:54;18.50;56.40
6824;DHT22;58633;49.470;11.004;2023-05-07T07:33:20;18.90;56.70
6824;DHT22;58633;49.470;11.004;2023-05-07T07:35:45;19.00;57.30
6824;DHT22;58633;49.470;11.004;2023-05-07T07:40:37;19.30;56.90
6824;DHT22;58633;49.470;11.004;2023-05-07T07:43:02;19.20;56.90
6824;DHT22;58633;49.470;11.004;2023-05-07T07:45:28;18.80;56.40
6824;DHT22;58633;49.470;11.004;2023-05-07T07:47:54;19.20;57.20
6824;DHT22;58633;49.470;11.004;2023-05-07T07:50:20;19.20;57.60
6824;DHT22;58633;49.470;11.004;2023-05-07T07:52:45;20.20;57.50
6824;DHT22;58633;49.470;11.004;2023-05-07T07:57:37;19.30;56.00
6824;DHT22;58633;49.470;11.004;2023-05-07T08:00:03;19.50;56.20
6824;DHT22;58633;49.470;11.004;2023-05-07T08:07:21;19.70;56.10
6824;DHT22;58633;49.470;11.004;2023-05-07T08:12:14;19.80;55.80
6824;DHT22;58633;49.470;11.004;2023-05-07T08:14:39;19.60;55.60
6824;DHT22;58633;49.470;11.004;2023-05-07T08:17:05;19.70;55.70
6824;DHT22;58633;49.470;11.004;2023-05-07T08:19:31;19.90;55.90
6824;DHT22;58633;49.470;11.004;2023-05-07T08:21:56;19.90;55.80
6824;DHT22;58633;49.470;11.004;2023-05-07T08:24:22;20.00;55.60
6824;DHT22;58633;49.470;11.004;2023-05-07T08:26:47;20.00;55.50
6824;DHT22;58633;49.470;11.004;2023-05-07T08:31:39;20.00;55.40
6824;DHT22;58633;49.470;11.004;2023-05-07T08:34:04;20.10;55.90
6824;DHT22;58633;49.470;11.004;2023-05-07T08:36:30;20.20;55.40
6824;DHT22;58633;49.470;11.004;2023-05-07T08:38:56;20.10;55.20
6824;DHT22;58633;49.470;11.004;2023-05-07T08:41:21;20.20;55.80
6824;DHT22;58633;49.470;11.004;2023-05-07T08:43:49;20.40;55.30
6824;DHT22;58633;49.470;11.004;2023-05-07T08:46:20;20.50;55.20
6824;DHT22;58633;49.470;11.004;2023-05-07T08:48:49;20.30;55.00
6824;DHT22;58633;49.470;11.004;2023-05-07T08:51:20;20.40;55.00
6824;DHT22;58633;49.470;11.004;2023-05-07T08:53:47;20.50;54.90
6824;DHT22;58633;49.470;11.004;2023-05-07T08:56:16;20.80;54.90
6824;DHT22;58633;49.470;11.004;2023-05-07T08:58:43;20.90;54.70
6824;DHT22;58633;49.470;11.004;2023-05-07T09:01:16;20.80;55.00
6824;DHT22;58633;49.470;11.004;2023-05-07T09:03:44;21.20;54.60
6824;DHT22;58633;49.470;11.004;2023-05-07T09:06:10;21.00;54.20
6824;DHT22;58633;49.470;11.004;2023-05-07T09:08:36;21.30;54.30
6824;DHT22;58633;49.470;11.004;2023-05-07T09:11:02;21.20;54.10
6824;DHT22;58633;49.470;11.004;2023-05-07T09:13:28;21.10;54.00
6824;DHT22;58633;49.470;11.004;2023-05-07T09:15:54;21.20;54.10
6824;DHT22;58633;49.470;11.004;2023-05-07T09:18:20;21.20;54.50
6824;DHT22;58633;49.470;11.004;2023-05-07T09:20:46;24.40;57.10
6824;DHT22;58633;49.470;11.004;2023-05-07T09:23:11;21.30;53.60
6824;DHT22;58633;49.470;11.004;2023-05-07T09:25:37;21.50;53.60
6824;DHT22;58633;49.470;11.004;2023-05-07T09:28:04;21.50;54.10
6824;DHT22;58633;49.470;11.004;2023-05-07T09:30:32;21.50;54.00
6824;DHT22;58633;49.470;11.004;2023-05-07T09:32:59;21.60;53.60
6824;DHT22;58633;49.470;11.004;2023-05-07T09:35:26;21.80;53.40
6824;DHT22;58633;49.470;11.004;2023-05-07T09:37:58;22.00;53.40
6824;DHT22;58633;49.470;11.004;2023-05-07T09:40:27;22.00;53.60
6824;DHT22;58633;49.470;11.004;2023-05-07T09:42:53;22.30;53.50
6824;DHT22;58633;49.470;11.004;2023-05-07T09:45:26;22.30;52.70
6824;DHT22;58633;49.470;11.004;2023-05-07T09:47:54;22.40;52.60
6824;DHT22;58633;49.470;11.004;2023-05-07T09:50:26;22.50;52.40
6824;DHT22;58633;49.470;11.004;2023-05-07T09:52:54;22.70;52.40
6824;DHT22;58633;49.470;11.004;2023-05-07T09:55:20;22.90;52.40
6824;DHT22;58633;49.470;11.004;2023-05-07T09:57:49;22.80;52.70
6824;DHT22;58633;49.470;11.004;2023-05-07T10:00:15;23.00;51.90
6824;DHT22;58633;49.470;11.004;2023-05-07T10:02:43;23.20;51.60
6824;DHT22;58633;49.470;11.004;2023-05-07T10:05:14;23.10;50.90
6824;DHT22;58633;49.470;11.004;2023-05-07T10:07:40;23.20;50.90
6824;DHT22;58633;49.470;11.004;2023-05-07T10:10:07;23.40;51.00
6824;DHT22;58633;49.470;11.004;2023-05-07T10:12:33;23.50;51.20
6824;DHT22;58633;49.470;11.004;2023-05-07T10:15:05;23.70;51.00
6824;DHT22;58633;49.470;11.004;2023-05-07T10:17:32;23.70;50.30
6824;DHT22;58633;49.470;11.004;2023-05-07T10:19:58;26.40;52.60
6824;DHT22;58633;49.470;11.004;2023-05-07T10:22:25;26.20;52.20
6824;DHT22;58633;49.470;11.004;2023-05-07T10:24:53;23.80;50.10
6824;DHT22;58633;49.470;11.004;2023-05-07T10:27:22;23.90;50.00
6824;DHT22;58633;49.470;11.004;2023-05-07T10:30:12;24.00;49.80
6824;DHT22;58633;49.470;11.004;2023-05-07T10:32:45;24.10;50.90
6824;DHT22;58633;49.470;11.004;2023-05-07T10:35:39;24.70;49.60
6824;DHT22;58633;49.470;11.004;2023-05-07T10:38:06;24.90;48.70
6824;DHT22;58633;49.470;11.004;2023-05-07T10:40:32;25.00;48.30
6824;DHT22;58633;49.470;11.004;2023-05-07T10:43:00;25.00;48.30
6824;DHT22;58633;49.470;11.004;2023-05-07T10:45:26;25.30;48.10
6824;DHT22;58633;49.470;11.004;2023-05-07T10:48:16;25.30;47.80
6824;DHT22;58633;49.470;11.004;2023-05-07T10:50:43;25.50;48.40
6824;DHT22;58633;49.470;11.004;2023-05-07T10:55:45;25.10;46.40
6824;DHT22;58633;49.470;11.004;2023-05-07T10:58:25;25.60;46.60
6824;DHT22;58633;49.470;11.004;2023-05-07T11:00:59;25.60;46.80
6824;DHT22;58633;49.470;11.004;2023-05-07T11:03:26;26.30;46.20
6824;DHT22;58633;49.470;11.004;2023-05-07T11:06:12;27.10;46.80
6824;DHT22;58633;49.470;11.004;2023-05-07T11:09:05;26.40;45.70
6824;DHT22;58633;49.470;11.004;2023-05-07T11:11:50;26.40;45.90
6824;DHT22;58633;49.470;11.004;2023-05-07T11:14:45;26.20;45.00
6824;DHT22;58633;49.470;11.004;2023-05-07T11:17:11;26.30;45.40
6824;DHT22;58633;49.470;11.004;2023-05-07T11:19:55;26.90;46.00
6824;DHT22;58633;49.470;11.004;2023-05-07T11:22:39;26.00;45.40
6824;DHT22;58633;49.470;11.004;2023-05-07T11:25:07;26.40;44.90
6824;DHT22;58633;49.470;11.004;2023-05-07T11:27:33;26.50;44.10
6824;DHT22;58633;49.470;11.004;2023-05-07T11:29:59;26.60;44.00
6824;DHT22;58633;49.470;11.004;2023-05-07T11:32:28;26.70;43.80
6824;DHT22;58633;49.470;11.004;2023-05-07T11:34:55;26.70;43.60
6824;DHT22;58633;49.470;11.004;2023-05-07T11:37:22;29.00;45.50
6824;DHT22;58633;49.470;11.004;2023-05-07T11:39:48;26.80;43.80
6824;DHT22;58633;49.470;11.004;2023-05-07T11:42:33;27.00;43.40
6824;DHT22;58633;49.470;11.004;2023-05-07T11:44:59;27.40;43.10
6824;DHT22;58633;49.470;11.004;2023-05-07T11:47:25;27.60;42.50
6824;DHT22;58633;49.470;11.004;2023-05-07T11:49:52;27.70;42.80
6824;DHT22;58633;49.470;11.004;2023-05-07T11:52:19;27.90;42.30
6824;DHT22;58633;49.470;11.004;2023-05-07T11:54:53;28.20;42.30
6824;DHT22;58633;49.470;11.004;2023-05-07T11:57:20;28.40;41.50
6824;DHT22;58633;49.470;11.004;2023-05-07T11:59:46;28.40;41.50
6824;DHT22;58633;49.470;11.004;2023-05-07T12:02:17;28.30;41.20
6824;DHT22;58633;49.470;11.004;2023-05-07T12:04:44;28.20;40.80
6824;DHT22;58633;49.470;11.004;2023-05-07T12:07:16;27.90;41.10
6824;DHT22;58633;49.470;11.004;2023-05-07T12:09:43;28.10;40.60
6824;DHT22;58633;49.470;11.004;2023-05-07T12:12:09;27.80;40.50
6824;DHT22;58633;49.470;11.004;2023-05-07T12:14:39;27.60;40.50
6824;DHT22;58633;49.470;11.004;2023-05-07T12:17:09;27.60;40.80
6824;DHT22;58633;49.470;11.004;2023-05-07T12:19:36;28.50;40.10
6824;DHT22;58633;49.470;11.004;2023-05-07T12:22:05;28.90;39.50
6824;DHT22;58633;49.470;11.004;2023-05-07T12:24:43;30.20;40.50
6824;DHT22;58633;49.470;11.004;2023-05-07T12:27:09;30.00;39.50
6824;DHT22;58633;49.470;11.004;2023-05-07T12:29:35;33.90;35.00
6824;DHT22;58633;49.470;11.004;2023-05-07T12:32:00;34.00;35.30
6824;DHT22;58633;49.470;11.004;2023-05-07T12:34:26;36.40;31.50
6824;DHT22;58633;49.470;11.004;2023-05-07T12:36:53;36.40;32.00
6824;DHT22;58633;49.470;11.004;2023-05-07T12:41:58;32.30;34.10
6824;DHT22;58633;49.470;11.004;2023-05-07T12:44:26;31.10;36.50
6824;DHT22;58633;49.470;11.004;2023-05-07T12:46:54;30.10;37.80
6824;DHT22;58633;49.470;11.004;2023-05-07T12:49:19;32.10;39.50
6824;DHT22;58633;49.470;11.004;2023-05-07T12:51:47;30.30;38.20
6824;DHT22;58633;49.470;11.004;2023-05-07T12:54:26;30.30;38.50
6824;DHT22;58633;49.470;11.004;2023-05-07T12:57:03;31.50;37.00
6824;DHT22;58633;49.470;11.004;2023-05-07T12:59:40;31.30;36.50
6824;DHT22;58633;49.470;11.004;2023-05-07T13:02:07;30.20;37.40
6824;DHT22;58633;49.470;11.004;2023-05-07T13:04:33;30.20;37.80
6824;DHT22;58633;49.470;11.004;2023-05-07T13:06:59;30.40;38.00
6824;DHT22;58633;49.470;11.004;2023-05-07T13:09:25;31.80;37.20
6824;DHT22;58633;49.470;11.004;2023-05-07T13:11:51;34.90;38.10
6824;DHT22;58633;49.470;11.004;2023-05-07T13:14:16;34.30;38.50
6824;DHT22;58633;49.470;11.004;2023-05-07T13:16:42;32.00;35.40
6824;DHT22;58633;49.470;11.004;2023-05-07T13:19:09;31.90;35.70
6824;DHT22;58633;49.470;11.004;2023-05-07T13:21:34;32.20;35.50
6824;DHT22;58633;49.470;11.004;2023-05-07T13:24:00;33.00;35.90
6824;DHT22;58633;49.470;11.004;2023-05-07T13:26:26;32.30;34.80
6824;DHT22;58633;49.470;11.004;2023-05-07T13:28:53;33.00;35.30
6824;DHT22;58633;49.470;11.004;2023-05-07T13:31:18;35.60;36.70
6824;DHT22;58633;49.470;11.004;2023-05-07T13:33:45;37.50;35.90
6824;DHT22;58633;49.470;11.004;2023-05-07T13:36:11;36.20;31.50
6824;DHT22;58633;49.470;11.004;2023-05-07T13:38:36;37.90;32.90
6824;DHT22;58633;49.470;11.004;2023-05-07T13:41:02;36.00;31.10
6824;DHT22;58633;49.470;11.004;2023-05-07T13:43:27;38.50;32.50
6824;DHT22;58633;49.470;11.004;2023-05-07T13:45:53;39.00;32.30
6824;DHT22;58633;49.470;11.004;2023-05-07T13:48:18;36.10;31.00
6824;DHT22;58633;49.470;11.004;2023-05-07T13:50:44;35.60;31.10
6824;DHT22;58633;49.470;11.004;2023-05-07T13:55:36;35.10;30.80
6824;DHT22;58633;49.470;11.004;2023-05-07T13:58:02;35.10;31.20
6824;DHT22;58633;49.470;11.004;2023-05-07T14:00:28;34.40;31.10
6824;DHT22;58633;49.470;11.004;2023-05-07T14:02:55;33.90;31.80
6824;DHT22;58633;49.470;11.004;2023-05-07T14:05:21;33.40;32.20
6824;DHT22;58633;49.470;11.004;2023-05-07T14:07:49;33.40;32.60
6824;DHT22;58633;49.470;11.004;2023-05-07T14:10:17;35.80;33.70
6824;DHT22;58633;49.470;11.004;2023-05-07T14:12:44;31.90;31.10
6824;DHT22;58633;49.470;11.004;2023-05-07T14:20:02;33.40;32.30
6824;DHT22;58633;49.470;11.004;2023-05-07T14:22:28;32.30;32.40
6824;DHT22;58633;49.470;11.004;2023-05-07T14:24:54;32.00;33.00
6824;DHT22;58633;49.470;11.004;2023-05-07T14:27:19;33.70;34.50
6824;DHT22;58633;49.470;11.004;2023-05-07T14:29:45;34.60;34.40
6824;DHT22;58633;49.470;11.004;2023-05-07T14:34:37;33.50;31.50
6824;DHT22;58633;49.470;11.004;2023-05-07T14:37:02;33.90;31.90
6824;DHT22;58633;49.470;11.004;2023-05-07T14:39:28;33.30;31.90
6824;DHT22;58633;49.470;11.004;2023-05-07T14:41:54;32.30;32.40
6824;DHT22;58633;49.470;11.004;2023-05-07T14:44:21;31.40;32.80
6824;DHT22;58633;49.470;11.004;2023-05-07T14:46:47;30.80;33.90
6824;DHT22;58633;49.470;11.004;2023-05-07T14:49:14;32.90;35.90
6824;DHT22;58633;49.470;11.004;2023-05-07T14:51:45;30.20;34.80
6824;DHT22;58633;49.470;11.004;2023-05-07T14:54:15;29.50;35.30
6824;DHT22;58633;49.470;11.004;2023-05-07T14:56:41;29.20;35.60
6824;DHT22;58633;49.470;11.004;2023-05-07T14:59:07;29.00;36.30
6824;DHT22;58633;49.470;11.004;2023-05-07T15:01:35;28.80;37.00
6824;DHT22;58633;49.470;11.004;2023-05-07T15:04:01;28.80;37.60
6824;DHT22;58633;49.470;11.004;2023-05-07T15:06:27;28.50;38.00
6824;DHT22;58633;49.470;11.004;2023-05-07T15:08:52;28.00;38.50
6824;DHT22;58633;49.470;11.004;2023-05-07T15:11:18;28.10;38.70
6824;DHT22;58633;49.470;11.004;2023-05-07T15:16:09;27.90;38.70
6824;DHT22;58633;49.470;11.004;2023-05-07T15:18:35;27.60;38.60
6824;DHT22;58633;49.470;11.004;2023-05-07T15:21:00;27.50;39.10
6824;DHT22;58633;49.470;11.004;2023-05-07T15:23:26;27.40;39.40
6824;DHT22;58633;49.470;11.004;2023-05-07T15:25:52;27.40;39.40
6824;DHT22;58633;49.470;11.004;2023-05-07T15:28:18;27.30;39.30
6824;DHT22;58633;49.470;11.004;2023-05-07T15:33:09;27.10;39.70
6824;DHT22;58633;49.470;11.004;2023-05-07T15:35:35;27.00;39.70
6824;DHT22;58633;49.470;11.004;2023-05-07T15:38:01;26.90;39.90
6824;DHT22;58633;49.470;11.004;2023-05-07T15:40:27;26.70;40.40
6824;DHT22;58633;49.470;11.004;2023-05-07T15:42:54;26.70;40.60
6824;DHT22;58633;49.470;11.004;2023-05-07T15:47:46;26.70;40.70
6824;DHT22;58633;49.470;11.004;2023-05-07T15:50:12;26.60;40.70
6824;DHT22;58633;49.470;11.004;2023-05-07T15:55:04;26.50;40.70
6824;DHT22;58633;49.470;11.004;2023-05-07T15:57:31;26.40;40.80
6824;DHT22;58633;49.470;11.004;2023-05-07T15:59:57;26.30;40.90
6824;DHT22;58633;49.470;11.004;2023-05-07T16:02:23;26.40;41.30
6824;DHT22;58633;49.470;11.004;2023-05-07T16:04:48;26.40;41.20
6824;DHT22;58633;49.470;11.004;2023-05-07T16:09:40;26.10;41.40
6824;DHT22;58633;49.470;11.004;2023-05-07T16:12:05;25.80;41.40
6824;DHT22;58633;49.470;11.004;2023-05-07T16:14:31;25.60;41.40
6824;DHT22;58633;49.470;11.004;2023-05-07T16:16:57;25.70;41.60
6824;DHT22;58633;49.470;11.004;2023-05-07T16:19:22;25.60;41.50
6824;DHT22;58633;49.470;11.004;2023-05-07T16:21:48;25.60;41.50
6824;DHT22;58633;49.470;11.004;2023-05-07T16:24:14;25.60;41.50
6824;DHT22;58633;49.470;11.004;2023-05-07T16:26:39;25.50;41.70
6824;DHT22;58633;49.470;11.004;2023-05-07T16:29:05;25.40;41.60
6824;DHT22;58633;49.470;11.004;2023-05-07T16:31:31;25.30;41.60
6824;DHT22;58633;49.470;11.004;2023-05-07T16:33:58;25.10;41.80
6824;DHT22;58633;49.470;11.004;2023-05-07T16:36:26;25.10;41.70
6824;DHT22;58633;49.470;11.004;2023-05-07T16:41:18;25.20;42.10
6824;DHT22;58633;49.470;11.004;2023-05-07T16:43:43;25.10;42.00
6824;DHT22;58633;49.470;11.004;2023-05-07T16:46:10;24.80;41.90
6824;DHT22;58633;49.470;11.004;2023-05-07T16:48:35;24.90;42.30
6824;DHT22;58633;49.470;11.004;2023-05-07T16:51:01;25.00;42.50
6824;DHT22;58633;49.470;11.004;2023-05-07T16:53:26;24.70;42.20
6824;DHT22;58633;49.470;11.004;2023-05-07T16:55:52;24.70;42.20
6824;DHT22;58633;49.470;11.004;2023-05-07T16:58:21;24.70;42.40
6824;DHT22;58633;49.470;11.004;2023-05-07T17:00:47;24.70;42.60
6824;DHT22;58633;49.470;11.004;2023-05-07T17:03:13;24.50;42.70
6824;DHT22;58633;49.470;11.004;2023-05-07T17:08:04;24.60;43.10
6824;DHT22;58633;49.470;11.004;2023-05-07T17:10:30;24.40;42.50
6824;DHT22;58633;49.470;11.004;2023-05-07T17:12:55;24.30;42.40
6824;DHT22;58633;49.470;11.004;2023-05-07T17:15:21;24.30;42.40
6824;DHT22;58633;49.470;11.004;2023-05-07T17:17:46;24.30;42.40
6824;DHT22;58633;49.470;11.004;2023-05-07T17:20:12;24.20;42.30
6824;DHT22;58633;49.470;11.004;2023-05-07T17:22:38;24.20;42.50
6824;DHT22;58633;49.470;11.004;2023-05-07T17:25:04;24.40;42.40